logo
App data

Cubixx HD

Store | Hub | SteamDB
Developer: Laughing Jackal LTD Publisher: Ghostlight LTD
Genre: Action, Indie
Languages: English, French, Italian, German, Spanish
Tags: Action (33), Indie (32), Puzzle (15), Singleplayer (13), Minimalist (12), Multiplayer (12), Local Multiplayer (12), Arcade (12), Abstract (11)
Category: Single-player, Shared/Split Screen, Steam Achievements, Full controller support, Steam Cloud, Steam Leaderboards
Release date: Jan 28, 2016
Price: $8.99
Owners: 0 .. 20,000
Followers: 354
Peak concurrent players yesterday: 1

Steam Spy is still in beta, so expect major bugs.

Owners data:

Access restricted.

This feature is only available to users with special access rights. Sorry.

If you want to proceed, you need to register or log in first and then back Steam Spy on Patreon. Look for Indie or Pro pledge.

Don't forget to use the same email as on Steam Spy!

Audience in 2 weeks:

Access restricted.

This feature is only available to users with special access rights. Sorry.

If you want to proceed, you need to register or log in first and then back Steam Spy on Patreon. Look for Indie or Pro pledge.

Don't forget to use the same email as on Steam Spy!

Peak daily concurrent players:

CCU data courtesy of SteamDB. Used with permission.

Hourly concurrent players:

Daily Twitch stats:

Hourly Twitch stats:

YouTube:

The views data is based on top 50 videos uploaded last week. Actual number of views might be more than the number shown.

The displayed number of videos uploaded yesterday is limited to 50, so if there were more videos uploaded, the number will still show 50.

If the game has commonly used word as its name (like "FEAR" or "Volume") its number of Youtube views might be wrong.

Games similar to this one:

# Game Release date
Price
Score rank
(Userscore / Metascore)
Owners
Players
Playtime (Median)
1 Z-Exemplar Nov 25, 2016 $4.99N/A (N/A)0 .. 20,0000%00:00 (00:00)
2 Pocket Kingdom Dec 8, 2016 $6.99N/A (N/A)0 .. 20,0000%00:00 (00:00)
3 The Sea Will Claim Everything Mar 24, 2016 $9.9997% (97%)0 .. 20,0000%00:00 (00:00)
4 In the Raven Shadow Ve stnu havrana Jul 11, 2017 $3.99N/A (N/A)0 .. 20,0000%00:00 (00:00)
5 OLDTV Jul 15, 2017 FreeN/A (N/A)200,000 .. 500,0005%00:47 (00:05)
6 Cosmic Sugar VR Nov 27, 2016 Free91% (95%)50,000 .. 100,0000%00:00 (00:00)
7 The Lonesome Fog Mar 24, 2016 $4.99N/A (N/A)0 .. 20,0000%00:00 (00:00)
8 Ballads of Reemus: When the Bed Bites Apr 27, 2015 $4.99N/A (N/A)0 .. 20,0000%00:00 (00:00)
9 Brighter Day Jul 17, 2015 $2.99N/A (N/A)0 .. 20,0000%00:00 (00:00)
10 Dragon Age: Origins Awakening Mar 16, 2010 $9.99N/A (N/A/82%)100,000 .. 200,0000%00:00 (00:00)
11 Pan-Pan Aug 25, 2016 $12.9977% (91%)0 .. 20,0000%00:00 (00:00)
12 You Have 10 Seconds Aug 2, 2016 Free73% (90%)200,000 .. 500,0000%00:00 (00:00)
13 Party Jousting Mar 1, 2016 Free73% (90%)200,000 .. 500,0000%00:00 (00:00)
14 Thread Studio Sep 29, 2016 FreeN/A (N/A)0 .. 20,0000%00:00 (00:00)
15 Viridi Aug 19, 2015 Free73% (90%/46%)500,000 .. 1,000,0003.97%00:36 (00:22)
16 Pilot Brothers 2 Dec 31, 2014 $4.99N/A (N/A)0 .. 20,0000%00:00 (00:00)
17 Black Ink Feb 8, 2016 $59.9969% (89%)0 .. 20,0000%00:00 (00:00)
18 Nimble Writer Apr 21, 2015 $9.9963% (87%)0 .. 20,0000%00:00 (00:00)
19 Jacob Jones and the Bigfoot Mystery : Episode 2 Sep 23, 2014 $3.99N/A (N/A)0 .. 20,0000%00:00 (00:00)
20 VR Gallery Aug 11, 2016 FreeN/A (N/A)20,000 .. 50,0000%00:00 (00:00)
21 SOLITUNE Apr 25, 2017 $1.99N/A (N/A)0 .. 20,0000%00:00 (00:00)
22 The Journey Back Aug 12, 2015 $1.99N/A (N/A)0 .. 20,0000%00:00 (00:00)
23 Foxhole Jul 27, 2017 $19.9947% (81%)200,000 .. 500,0002.63%20:23 (06:47)
24 SVRVIVE: The Deus Helix Nov 17, 2016 $11.0145% (80%)0 .. 20,0000%00:00 (00:00)
25 The Storm Guard: Darkness is Coming Aug 25, 2016 $19.9945% (80%)0 .. 20,0000%00:00 (00:00)
26 Call of Cthulhu: Shadow of the Comet Nov 4, 2015 $5.99N/A (N/A)0 .. 20,0000%00:00 (00:00)
27 Ambre - a heartbreaking kinetic novel Jun 9, 2017 FreeN/A (N/A)20,000 .. 50,0002.94%00:01 (00:00)
28 Tony Tough and the Night of Roasted Moths May 7, 2015 $9.99N/A (N/A/68%)0 .. 20,0000%00:00 (00:00)
29 Just Ignore Them Apr 28, 2017 $3.9935% (75%)0 .. 20,0000%00:00 (00:00)
30 Fences Mar 29, 2017 $9.99N/A (N/A)20,000 .. 50,00012.5%00:01 (00:00)
31 IKEA VR Experience Apr 4, 2016 Free33% (74%)100,000 .. 200,0000%00:00 (00:00)
32 Mausoleum of the Medusa Oct 27, 2016 Free32% (73%)0 .. 20,0000%00:00 (00:00)
33 Call of Cthulhu: Prisoner of Ice Nov 4, 2015 $5.99N/A (N/A)0 .. 20,0000%00:00 (00:00)
34 Tiles & Tales Jan 23, 2017 FreeN/A (N/A)0 .. 20,0000%00:00 (00:00)
35 Wild Warfare Jul 15, 2014 Free27% (70%)200,000 .. 500,0000%00:00 (00:00)
36 The Revenge of Johnny Bonasera: Episode 1 Oct 31, 2016 $1.99N/A (N/A)0 .. 20,0000%00:00 (00:00)
37 Unhappy Ever After Jan 20, 2017 $5.99N/A (N/A)0 .. 20,0000%00:00 (00:00)
38 CGWallpapers Nov 30, 2016 $4.99N/A (N/A)0 .. 20,0000%00:00 (00:00)
39 The Morgue Fissure Between Worlds Mar 30, 2017 $0.99N/A (N/A)0 .. 20,0000%00:00 (00:00)
40 Clown2Beat Oct 26, 2016 FreeN/A (N/A)20,000 .. 50,0000%00:00 (00:00)
41 Lands of Hope Redemption Oct 15, 2015 $1.99N/A (N/A)0 .. 20,0000%00:00 (00:00)
42 Elminage Gothic Sep 18, 2014 $9.9915% (60%)0 .. 20,0000%00:00 (00:00)
43 The Big Secret of a Small Town Oct 22, 2015 $6.99N/A (N/A)0 .. 20,0000%00:00 (00:00)
44 Mystery Mine May 18, 2017 $3.9915% (60%)50,000 .. 100,0000.41%300:25 (100:08)
45 Torn Tales Jan 17, 2017 $12.99N/A (N/A)20,000 .. 50,0005.08%03:18 (01:56)
46 Escape The Lost Kingdom: The Forgotten Pharaoh Apr 29, 2014 $4.99N/A (N/A)0 .. 20,0000%00:00 (00:00)
47 D.W.A.R.F.S. Mar 20, 2014 $5.99N/A (N/A)0 .. 20,0000%00:00 (00:00)
48 Fractasia Nov 17, 2016 FreeN/A (N/A)0 .. 20,0000%00:00 (00:00)
49 Multiplayer FPS Demo Jul 6, 2017 FreeN/A (N/A)50,000 .. 100,0000%00:00 (00:00)
50 Playing History: Vikings Jul 1, 2015 $2.99N/A (N/A)20,000 .. 50,0002.13%07:01 (02:20)
51 Pilot Brothers 3: Back Side of the Earth Jan 22, 2015 $4.99N/A (N/A)0 .. 20,0000%00:00 (00:00)
52 After Life - Story of a Father Nov 25, 2016 $5.99N/A (N/A)0 .. 20,0000%00:00 (00:00)
53 Ways of History Sep 1, 2017 Free7% (47%)50,000 .. 100,0000%00:00 (00:00)
54 Astro Lords: Oort Cloud Jan 15, 2016 FreeN/A (N/A)50,000 .. 100,0000%00:00 (00:00)
55 Bayou Island - Point and Click Adventure Feb 28, 2017 $1.99N/A (N/A)0 .. 20,0000%00:00 (00:00)
56 De-Void Sep 2, 2016 $7.99N/A (N/A)20,000 .. 50,0000%00:00 (00:00)
57 Maze Sounds Oct 1, 2016 $4.99N/A (N/A)0 .. 20,0000%00:00 (00:00)
58 Vault Cracker May 15, 2014 $0.99N/A (N/A)0 .. 20,0000%00:00 (00:00)
59 Ragnarok Journey Jun 12, 2017 Free3% (36%)50,000 .. 100,0005%00:02 (00:00)
60 BattleSpace Jan 7, 2015 FreeN/A (N/A)100,000 .. 200,0000%00:00 (00:00)
61 iTownGamePlay UNIVERSE Jul 19, 2017 FreeN/A (N/A)20,000 .. 50,0000%00:00 (00:00)
62 Haunted House: Cryptic Graves Nov 25, 2014 N/AN/A (N/A)0 .. 20,0000%00:00 (00:00)

Owners of this game also own:

Access restricted.

This feature is only available to users with special access rights. Sorry.

If you want to proceed, you need to register or log in first and then back Steam Spy on Patreon. Look for Indie or Pro pledge.

Don't forget to use the same email as on Steam Spy!

Playtime distribution:

Access restricted.

This feature is only available to users with special access rights. Sorry.

If you want to proceed, you need to register or log in first and then back Steam Spy on Patreon. Look for Indie or Pro pledge.

Don't forget to use the same email as on Steam Spy!

Playtime (2 weeks):

Access restricted.

This feature is only available to users with special access rights. Sorry.

If you want to proceed, you need to register or log in first and then back Steam Spy on Patreon. Look for Indie or Pro pledge.

Don't forget to use the same email as on Steam Spy!

User reviews:

Login required.

Please register or log in to see this information.